createdAt,value
2023-10-16T00:01:32.804Z,4.3
2023-10-16T00:06:38.981Z,4.3
2023-10-16T00:11:45.176Z,4.4
2023-10-16T00:16:51.378Z,4.4
2023-10-16T00:27:03.741Z,4.3
2023-10-16T00:32:08.983Z,4.3
2023-10-16T00:37:15.176Z,4.2
2023-10-16T00:42:21.400Z,4.2
2023-10-16T00:47:27.614Z,4.1
2023-10-16T00:52:33.748Z,4.1
2023-10-16T00:57:39.938Z,4
2023-10-16T01:02:46.157Z,4
2023-10-16T01:07:52.349Z,3.9
2023-10-16T01:12:58.537Z,3.9
2023-10-16T01:18:04.734Z,3.9
2023-10-16T01:28:17.123Z,3.9
2023-10-16T01:33:23.308Z,3.9
2023-10-16T01:38:28.538Z,4
2023-10-16T01:43:34.755Z,4
2023-10-16T01:48:40.932Z,4
2023-10-16T01:53:47.310Z,3.9
2023-10-16T01:58:53.340Z,3.8
2023-10-16T02:03:59.487Z,3.7
2023-10-16T02:09:05.729Z,3.6
2023-10-16T02:14:11.877Z,3.6
2023-10-16T02:19:18.058Z,3.6
2023-10-16T02:24:24.271Z,3.6
2023-10-16T02:29:30.446Z,3.6
2023-10-16T02:39:42.897Z,3.6
2023-10-16T02:44:49.064Z,3.6
2023-10-16T02:49:54.272Z,3.5
2023-10-16T03:00:06.664Z,3.5
2023-10-16T03:05:11.922Z,3.6
2023-10-16T03:10:17.167Z,3.6
2023-10-16T03:15:23.353Z,3.6
2023-10-16T03:20:29.535Z,3.6
2023-10-16T03:25:35.733Z,3.6
2023-10-16T03:30:41.925Z,3.7
2023-10-16T03:35:48.116Z,3.6
2023-10-16T03:40:54.305Z,3.7
2023-10-16T03:46:00.507Z,3.6
2023-10-16T03:51:06.755Z,3.6
2023-10-16T03:56:11.985Z,3.4
2023-10-16T04:01:17.255Z,3.4
2023-10-16T04:06:23.392Z,3.4
2023-10-16T04:11:29.594Z,3.4
2023-10-16T04:16:34.848Z,3.4
2023-10-16T04:21:41.049Z,3.4
2023-10-16T04:26:47.269Z,3.5
2023-10-16T04:31:53.433Z,3.5
2023-10-16T04:36:59.613Z,3.6
2023-10-16T04:42:05.801Z,3.6
2023-10-16T04:47:12.016Z,3.7
2023-10-16T04:52:18.199Z,3.7
2023-10-16T04:57:24.488Z,3.6
2023-10-16T05:02:30.568Z,3.6
2023-10-16T05:07:36.858Z,3.6
2023-10-16T05:12:42.955Z,3.7
2023-10-16T05:17:49.154Z,3.8
2023-10-16T05:22:54.375Z,3.9
2023-10-16T05:28:00.586Z,3.9
2023-10-16T05:33:06.773Z,3.9
2023-10-16T05:38:13.002Z,4
2023-10-16T05:43:19.160Z,4
2023-10-16T05:48:25.348Z,4
2023-10-16T05:53:31.544Z,4.1
2023-10-16T05:58:37.858Z,4.1
2023-10-16T06:03:43.978Z,4.1
2023-10-16T06:08:50.095Z,4.1
2023-10-16T06:13:56.317Z,4.2
2023-10-16T06:19:02.495Z,4.3
2023-10-16T06:24:08.676Z,4.3
2023-10-16T06:29:13.902Z,4.3
2023-10-16T06:34:20.116Z,4.4
2023-10-16T06:39:26.291Z,4.5
2023-10-16T06:44:32.586Z,4.7
2023-10-16T06:49:38.661Z,5
2023-10-16T06:54:44.872Z,5.2
2023-10-16T06:59:51.093Z,5.4
2023-10-16T07:04:57.261Z,5.6
2023-10-16T07:10:03.626Z,5.7
2023-10-16T07:15:09.625Z,5.8
2023-10-16T07:20:15.812Z,5.8
2023-10-16T07:25:22.008Z,5.8
2023-10-16T07:30:28.195Z,5.7
2023-10-16T07:35:33.419Z,5.9
2023-10-16T07:40:39.626Z,6.2
2023-10-16T07:45:45.807Z,6.7
2023-10-16T07:55:58.287Z,7.3
2023-10-16T08:01:04.386Z,7.4
2023-10-16T08:06:10.567Z,7.5
2023-10-16T08:11:16.748Z,7.9
2023-10-16T08:16:22.932Z,7.3
2023-10-16T08:21:29.135Z,7.5
2023-10-16T08:26:35.399Z,7.4
2023-10-16T08:31:41.574Z,7.6
2023-10-16T08:36:47.860Z,7.7
2023-10-16T08:41:52.996Z,7.9
2023-10-16T08:46:59.184Z,8
2023-10-16T08:52:05.377Z,7.9
2023-10-16T08:57:11.564Z,8
2023-10-16T09:02:17.746Z,8
2023-10-16T09:07:23.995Z,8.7
2023-10-16T09:12:30.354Z,8.5
2023-10-16T09:17:36.482Z,8.8
2023-10-16T09:22:42.522Z,8.8
2023-10-16T09:27:48.709Z,9
2023-10-16T09:32:54.885Z,9.3
2023-10-16T09:38:01.144Z,9.6
2023-10-16T09:43:07.254Z,9.1
2023-10-16T09:48:12.506Z,8.8
2023-10-16T09:53:18.688Z,9.2
2023-10-16T09:58:24.870Z,9.7
2023-10-16T10:03:31.081Z,9.9
2023-10-16T10:08:37.261Z,10
2023-10-16T10:13:43.444Z,9.6
2023-10-16T10:18:49.626Z,9.9
2023-10-16T10:23:55.820Z,9.4
2023-10-16T10:29:02.138Z,9.6
2023-10-16T10:34:08.194Z,9.6
2023-10-16T10:39:14.376Z,10
2023-10-16T10:44:20.563Z,10.4
2023-10-16T10:49:26.763Z,10.8
2023-10-16T10:54:32.074Z,10.1
2023-10-16T10:59:38.409Z,10.2
2023-10-16T11:04:44.366Z,9.9
2023-10-16T11:09:50.858Z,10.4
2023-10-16T11:14:57.082Z,10.3
2023-10-16T11:20:03.031Z,10.2
2023-10-16T11:25:09.347Z,10.6
2023-10-16T11:30:15.660Z,11.4
2023-10-16T11:35:21.755Z,11.8
2023-10-16T11:40:27.894Z,12.4
2023-10-16T11:45:33.877Z,12.2
2023-10-16T11:50:40.119Z,11.4
2023-10-16T11:55:46.496Z,11
2023-10-16T12:05:57.928Z,11
2023-10-16T12:11:04.097Z,11.3
2023-10-16T12:16:10.207Z,11
2023-10-16T12:21:16.527Z,11.3
2023-10-16T12:26:22.723Z,11.6
2023-10-16T12:31:28.942Z,11.7
2023-10-16T12:36:35.125Z,11
2023-10-16T12:41:41.116Z,12.4
2023-10-16T12:46:47.528Z,15.3
2023-10-16T12:51:53.714Z,12.3
2023-10-16T12:56:59.840Z,13.9
2023-10-16T13:02:06.016Z,14.6
2023-10-16T13:07:11.246Z,14.8
2023-10-16T13:12:17.443Z,14.5
2023-10-16T13:17:23.615Z,15.3
2023-10-16T13:22:29.506Z,16.2
2023-10-16T13:27:35.992Z,14.3
2023-10-16T13:32:41.865Z,12.9
2023-10-16T13:37:48.391Z,14.2
2023-10-16T13:42:54.476Z,16.2
2023-10-16T13:48:00.687Z,13.9
2023-10-16T13:53:06.885Z,12.3
2023-10-16T13:58:13.108Z,11.6
2023-10-16T14:03:19.211Z,10.7
2023-10-16T14:08:25.370Z,10.4
2023-10-16T14:13:30.724Z,10.2
2023-10-16T14:18:36.954Z,10.2
2023-10-16T14:23:42.917Z,10.1
2023-10-16T14:28:48.947Z,10.2
2023-10-16T14:33:55.407Z,10.2
2023-10-16T14:39:01.560Z,10.5
2023-10-16T14:44:07.773Z,10.2
2023-10-16T14:49:14.025Z,10.2
2023-10-16T14:54:20.182Z,10.5
2023-10-16T14:59:26.379Z,10.4
2023-10-16T15:04:32.670Z,10.2
2023-10-16T15:09:38.450Z,10.2
2023-10-16T15:14:45.005Z,10.1
2023-10-16T15:19:50.823Z,9.9
2023-10-16T15:24:56.473Z,9.7
2023-10-16T15:30:02.584Z,9.7
2023-10-16T15:35:08.690Z,9.6
2023-10-16T15:40:15.003Z,9.5
2023-10-16T15:45:21.073Z,9.4
2023-10-16T15:50:27.285Z,9.4
2023-10-16T15:55:33.457Z,9.2
2023-10-16T16:00:39.785Z,8.9
2023-10-16T16:10:52.002Z,8.5
2023-10-16T16:15:58.266Z,8.4
2023-10-16T16:21:04.507Z,8.3
2023-10-16T16:26:10.587Z,8.2
2023-10-16T16:31:16.908Z,8
2023-10-16T16:36:21.811Z,7.9
2023-10-16T16:41:28.112Z,7.8
2023-10-16T16:46:34.353Z,7.6
2023-10-16T16:51:40.357Z,7.6
2023-10-16T16:56:46.644Z,7.4
2023-10-16T17:01:52.948Z,7.2
2023-10-16T17:06:59.265Z,7
2023-10-16T17:12:05.289Z,6.9
2023-10-16T17:17:11.437Z,6.7
2023-10-16T17:22:17.670Z,6.5
2023-10-16T17:27:23.761Z,6.2
2023-10-16T17:32:30.022Z,5.9
2023-10-16T17:37:36.075Z,5.8
2023-10-16T17:42:41.427Z,5.7
2023-10-16T17:47:47.484Z,5.6
2023-10-16T17:52:53.695Z,5.5
2023-10-16T17:57:59.915Z,5.4
2023-10-16T18:03:06.064Z,5.4
2023-10-16T18:08:12.375Z,5.5
2023-10-16T18:13:18.505Z,5.5
2023-10-16T18:18:24.674Z,5.5
2023-10-16T18:23:30.813Z,5.6
2023-10-16T18:28:37.093Z,5.7
2023-10-16T18:33:43.278Z,5.8
2023-10-16T18:38:49.386Z,6
2023-10-16T18:43:55.586Z,6.4
2023-10-16T18:49:00.811Z,6.4
2023-10-16T18:54:07.011Z,6.4
2023-10-16T18:59:13.192Z,6.4
2023-10-16T19:04:19.381Z,6.4
2023-10-16T19:09:25.623Z,6.5
2023-10-16T19:14:31.768Z,6.4
2023-10-16T19:19:37.947Z,6.4
2023-10-16T19:24:44.267Z,6.4
2023-10-16T19:29:50.318Z,6.4
2023-10-16T19:34:56.527Z,6.5
2023-10-16T19:40:02.696Z,6.5
2023-10-16T19:45:08.907Z,6.5
2023-10-16T19:50:15.090Z,6.5
2023-10-16T19:55:21.281Z,6.5
2023-10-16T20:00:26.516Z,6.5
2023-10-16T20:05:32.714Z,6.6
2023-10-16T20:10:39.001Z,6.7
2023-10-16T20:15:45.118Z,6.8
2023-10-16T20:20:51.295Z,6.8
2023-10-16T20:25:57.462Z,6.8
2023-10-16T20:31:03.673Z,6.8
2023-10-16T20:36:09.915Z,6.8
2023-10-16T20:41:16.112Z,6.9
2023-10-16T20:46:22.273Z,6.9
2023-10-16T20:51:28.443Z,6.9
2023-10-16T20:56:34.622Z,6.8
2023-10-16T21:01:40.815Z,6.8
2023-10-16T21:06:46.171Z,6.8
2023-10-16T21:11:52.244Z,6.7
2023-10-16T21:16:58.436Z,6.6
2023-10-16T21:22:03.679Z,6.6
2023-10-16T21:27:09.871Z,6.5
2023-10-16T21:32:16.068Z,6.4
2023-10-16T21:37:22.261Z,6.3
2023-10-16T21:42:28.463Z,6.4
2023-10-16T21:47:34.648Z,6.3
2023-10-16T21:52:40.843Z,6.1
2023-10-16T21:57:47.019Z,6.1
2023-10-16T22:02:53.272Z,6
2023-10-16T22:07:59.408Z,5.9
2023-10-16T22:13:05.600Z,5.8
2023-10-16T22:18:11.795Z,5.6
2023-10-16T22:23:17.966Z,5.4
2023-10-16T22:28:23.198Z,5.4
2023-10-16T22:33:29.443Z,5.1
2023-10-16T22:38:35.628Z,4.9
2023-10-16T22:43:41.832Z,5
2023-10-16T22:48:48.010Z,5
2023-10-16T22:59:00.446Z,4.5
2023-10-16T23:04:06.677Z,4.3
2023-10-16T23:09:12.784Z,4.1
2023-10-16T23:14:18.988Z,4
2023-10-16T23:19:25.177Z,3.8
2023-10-16T23:24:31.369Z,3.7
2023-10-16T23:29:37.569Z,3.5
2023-10-16T23:34:42.802Z,3.4
2023-10-16T23:39:49.007Z,3.3
2023-10-16T23:50:01.390Z,3.5
2023-10-16T23:55:07.592Z,3.6
